createdAt,value
2023-03-26T00:03:20.925Z,24.20
2023-03-26T00:07:20.898Z,24.20
2023-03-26T00:11:20.881Z,24.19
2023-03-26T00:15:20.905Z,24.19
2023-03-26T00:19:20.813Z,24.19
2023-03-26T00:23:20.763Z,24.19
2023-03-26T00:27:20.740Z,24.19
2023-03-26T00:31:20.953Z,24.18
2023-03-26T00:35:20.901Z,24.18
2023-03-26T00:39:20.816Z,24.19
2023-03-26T00:43:20.763Z,24.18
2023-03-26T00:47:20.742Z,24.18
2023-03-26T00:51:20.748Z,24.19
2023-03-26T00:55:20.660Z,24.18
2023-03-26T00:59:20.632Z,24.18
2023-03-26T01:03:27.683Z,24.18
2023-03-26T01:07:21.578Z,24.18
2023-03-26T01:11:20.540Z,24.17
2023-03-26T01:15:20.662Z,24.18
2023-03-26T01:19:20.655Z,24.17
2023-03-26T01:23:20.610Z,24.17
2023-03-26T01:27:20.575Z,24.17
2023-03-26T01:31:20.543Z,24.17
2023-03-26T01:35:20.535Z,24.18
2023-03-26T01:39:20.475Z,24.17
2023-03-26T01:43:20.440Z,24.17
2023-03-26T01:47:20.418Z,24.18
2023-03-26T01:51:20.371Z,24.18
2023-03-26T01:55:20.436Z,24.18
2023-03-26T01:59:20.414Z,24.18
2023-03-26T02:03:20.512Z,24.18
2023-03-26T02:07:20.336Z,24.18
2023-03-26T02:11:21.581Z,24.18
2023-03-26T02:15:20.292Z,24.18
2023-03-26T02:19:20.372Z,24.17
2023-03-26T02:23:20.188Z,24.18
2023-03-26T02:27:20.172Z,24.18
2023-03-26T02:31:20.164Z,24.18
2023-03-26T02:35:20.207Z,24.17
2023-03-26T02:39:20.158Z,24.17
2023-03-26T02:43:20.038Z,24.17
2023-03-26T02:47:19.989Z,24.18
2023-03-26T02:51:20.167Z,24.17
2023-03-26T02:55:20.093Z,24.17
2023-03-26T02:59:20.056Z,24.17
2023-03-26T03:03:20.105Z,24.17
2023-03-26T03:07:19.999Z,24.17
2023-03-26T03:11:19.948Z,24.17
2023-03-26T03:15:19.917Z,24.16
2023-03-26T03:19:19.882Z,24.16
2023-03-26T03:23:19.857Z,24.16
2023-03-26T03:27:19.830Z,24.15
2023-03-26T03:31:19.848Z,24.16
2023-03-26T03:35:19.827Z,24.15
2023-03-26T03:39:19.753Z,24.16
2023-03-26T03:43:19.698Z,24.16
2023-03-26T03:47:19.680Z,24.15
2023-03-26T03:51:19.634Z,24.15
2023-03-26T03:55:19.617Z,24.15
2023-03-26T03:59:19.567Z,24.14
2023-03-26T04:03:19.745Z,24.16
2023-03-26T04:07:20.523Z,24.14
2023-03-26T04:11:19.503Z,24.14
2023-03-26T04:15:19.630Z,24.14
2023-03-26T04:19:19.627Z,24.14
2023-03-26T04:23:19.573Z,24.14
2023-03-26T04:27:19.577Z,24.13
2023-03-26T04:31:19.537Z,24.14
2023-03-26T04:35:19.514Z,24.13
2023-03-26T04:39:19.484Z,24.13
2023-03-26T04:43:19.443Z,24.13
2023-03-26T04:47:19.374Z,24.13
2023-03-26T04:51:19.329Z,24.13
2023-03-26T04:55:19.334Z,24.12
2023-03-26T04:59:19.272Z,24.13
2023-03-26T05:03:19.236Z,24.13
2023-03-26T05:07:19.489Z,24.12
2023-03-26T05:11:19.434Z,24.12
2023-03-26T05:15:19.426Z,24.13
2023-03-26T05:19:19.348Z,24.13
2023-03-26T05:23:19.331Z,24.12
2023-03-26T05:27:19.314Z,24.13
2023-03-26T05:31:19.266Z,24.13
2023-03-26T05:35:19.332Z,24.12
2023-03-26T05:39:19.216Z,24.13
2023-03-26T05:43:19.187Z,24.13
2023-03-26T05:47:19.346Z,24.14
2023-03-26T05:51:19.311Z,24.13
2023-03-26T05:55:19.293Z,24.14
2023-03-26T05:59:19.255Z,24.15
2023-03-26T06:03:19.385Z,24.17
2023-03-26T06:07:19.199Z,24.17
2023-03-26T06:11:19.187Z,24.17
2023-03-26T06:15:19.120Z,24.18
2023-03-26T06:19:19.088Z,24.19
2023-03-26T06:23:19.070Z,24.21
2023-03-26T06:27:19.011Z,24.23
2023-03-26T06:31:19.271Z,24.25
2023-03-26T06:35:19.383Z,24.27
2023-03-26T06:39:19.599Z,24.30
2023-03-26T06:43:19.787Z,24.34
2023-03-26T06:47:20.034Z,24.37
2023-03-26T06:51:20.200Z,24.40
2023-03-26T06:55:20.343Z,24.42
2023-03-26T06:59:20.519Z,24.44
2023-03-26T07:03:20.720Z,24.45
2023-03-26T07:07:20.880Z,24.47
2023-03-26T07:11:21.066Z,24.58
2023-03-26T07:15:21.182Z,24.73
2023-03-26T07:19:21.348Z,24.84
2023-03-26T07:23:21.387Z,24.85
2023-03-26T07:27:21.461Z,24.86
2023-03-26T07:31:21.567Z,24.83
2023-03-26T07:35:21.654Z,24.81
2023-03-26T07:39:21.704Z,24.79
2023-03-26T07:43:21.764Z,24.79
2023-03-26T07:47:21.843Z,24.85
2023-03-26T07:51:21.895Z,24.90
2023-03-26T07:55:21.936Z,24.92
2023-03-26T07:59:21.983Z,24.95
2023-03-26T08:03:22.078Z,25.00
2023-03-26T08:07:22.076Z,25.04
2023-03-26T08:11:22.103Z,25.07
2023-03-26T08:15:22.082Z,25.06
2023-03-26T08:19:22.098Z,25.05
2023-03-26T08:23:22.103Z,25.09
2023-03-26T08:27:22.092Z,25.13
2023-03-26T08:31:22.100Z,25.19
2023-03-26T08:35:22.082Z,25.25
2023-03-26T08:39:22.115Z,25.32
2023-03-26T08:43:22.297Z,25.37
2023-03-26T08:47:22.261Z,25.38
2023-03-26T08:51:22.237Z,25.42
2023-03-26T08:55:22.198Z,25.43
2023-03-26T08:59:22.143Z,25.44
2023-03-26T09:03:22.117Z,25.40
2023-03-26T09:07:22.087Z,25.35
2023-03-26T09:11:22.056Z,25.30
2023-03-26T09:15:22.031Z,25.25
2023-03-26T09:19:22.015Z,25.21
2023-03-26T09:23:21.953Z,25.18
2023-03-26T09:27:21.928Z,25.16
2023-03-26T09:31:21.886Z,25.14
2023-03-26T09:35:21.895Z,25.14
2023-03-26T09:39:21.833Z,25.14
2023-03-26T09:43:21.779Z,25.16
2023-03-26T09:47:21.763Z,25.20
2023-03-26T09:51:21.723Z,25.22
2023-03-26T09:55:21.689Z,25.23
2023-03-26T09:59:21.694Z,25.23
2023-03-26T10:03:21.740Z,25.24
2023-03-26T10:07:21.744Z,25.24
2023-03-26T10:11:21.891Z,25.21
2023-03-26T10:15:23.947Z,25.20
2023-03-26T10:19:22.029Z,25.17
2023-03-26T10:23:21.989Z,25.16
2023-03-26T10:27:24.322Z,25.15
2023-03-26T10:31:22.037Z,25.12
2023-03-26T10:35:21.915Z,25.09
2023-03-26T10:39:37.304Z,25.07
2023-03-26T10:43:22.810Z,25.05
2023-03-26T10:47:21.816Z,25.03
2023-03-26T10:51:21.745Z,25.02
2023-03-26T10:55:23.606Z,25.02
2023-03-26T10:59:21.683Z,25.02
2023-03-26T11:03:21.644Z,25.02
2023-03-26T11:07:21.626Z,25.03
2023-03-26T11:11:21.571Z,25.04
2023-03-26T11:15:21.548Z,25.05
2023-03-26T11:19:21.509Z,25.05
2023-03-26T11:23:21.493Z,25.05
2023-03-26T11:27:23.730Z,25.06
2023-03-26T11:31:21.473Z,25.06
2023-03-26T11:35:39.769Z,25.07
2023-03-26T11:39:22.350Z,25.06
2023-03-26T11:43:21.320Z,25.06
2023-03-26T11:47:21.287Z,25.06
2023-03-26T11:51:21.273Z,25.05
2023-03-26T11:55:21.206Z,25.03
2023-03-26T11:59:21.815Z,25.02
2023-03-26T12:03:21.240Z,25.00
2023-03-26T12:07:21.218Z,24.98
2023-03-26T12:11:21.298Z,24.95
2023-03-26T12:15:21.354Z,24.92
2023-03-26T12:19:21.406Z,24.90
2023-03-26T12:23:21.484Z,24.88
2023-03-26T12:27:21.592Z,24.86
2023-03-26T12:31:21.659Z,24.84
2023-03-26T12:35:21.752Z,24.81
2023-03-26T12:40:11.853Z,24.78
2023-03-26T12:44:54.028Z,24.76
2023-03-26T12:47:59.919Z,24.74
2023-03-26T12:51:22.767Z,24.72
2023-03-26T12:55:21.754Z,24.70
2023-03-26T12:59:21.745Z,24.69
2023-03-26T13:03:22.020Z,24.67
2023-03-26T13:07:21.648Z,24.67
2023-03-26T13:11:21.594Z,24.66
2023-03-26T13:15:21.560Z,24.67
2023-03-26T13:19:21.534Z,24.66
2023-03-26T13:23:21.566Z,24.65
2023-03-26T13:27:21.709Z,24.64
2023-03-26T13:31:21.971Z,24.63
2023-03-26T13:35:22.061Z,24.62
2023-03-26T13:39:22.204Z,24.61
2023-03-26T13:43:22.373Z,24.61
2023-03-26T13:47:22.561Z,24.60
2023-03-26T13:51:22.732Z,24.60
2023-03-26T13:55:22.913Z,24.59
2023-03-26T13:59:23.095Z,24.58
2023-03-26T14:03:23.331Z,24.58
2023-03-26T14:07:23.460Z,24.58
2023-03-26T14:11:23.652Z,24.57
2023-03-26T14:15:23.843Z,24.56
2023-03-26T14:19:24.032Z,24.56
2023-03-26T14:23:24.255Z,24.55
2023-03-26T14:27:24.443Z,24.54
2023-03-26T14:31:24.641Z,24.53
2023-03-26T14:35:24.825Z,24.52
2023-03-26T14:39:24.980Z,24.52
2023-03-26T14:43:25.184Z,24.51
2023-03-26T14:47:25.584Z,24.51
2023-03-26T14:51:25.590Z,24.50
2023-03-26T14:55:25.591Z,24.50
2023-03-26T14:59:25.715Z,24.50
2023-03-26T15:03:25.968Z,24.49
2023-03-26T15:07:26.143Z,24.48
2023-03-26T15:11:26.339Z,24.48
2023-03-26T15:15:26.550Z,24.48
2023-03-26T15:19:26.771Z,24.47
2023-03-26T15:23:26.960Z,24.47
2023-03-26T15:27:27.157Z,24.46
2023-03-26T15:31:27.379Z,24.46
2023-03-26T15:35:27.486Z,24.46
2023-03-26T15:39:27.770Z,24.45
2023-03-26T15:43:27.883Z,24.45
2023-03-26T15:47:28.116Z,24.45
2023-03-26T15:51:28.553Z,24.45
2023-03-26T15:55:28.361Z,24.44
2023-03-26T15:59:28.432Z,24.44
2023-03-26T16:03:28.634Z,24.43
2023-03-26T16:07:28.846Z,24.44
2023-03-26T16:11:29.064Z,24.43
2023-03-26T16:15:29.316Z,24.43
2023-03-26T16:19:29.483Z,24.43
2023-03-26T16:23:29.698Z,24.43
2023-03-26T16:27:29.913Z,24.43
2023-03-26T16:31:38.225Z,24.42
2023-03-26T16:35:31.109Z,24.41
2023-03-26T16:39:30.043Z,24.41
2023-03-26T16:43:30.186Z,24.41
2023-03-26T16:47:30.202Z,24.41
2023-03-26T16:51:30.131Z,24.40
2023-03-26T16:55:30.087Z,24.39
2023-03-26T16:59:30.077Z,24.39
2023-03-26T17:03:30.197Z,24.39
2023-03-26T17:07:30.002Z,24.38
2023-03-26T17:11:29.966Z,24.39
2023-03-26T17:15:29.922Z,24.37
2023-03-26T17:19:29.883Z,24.36
2023-03-26T17:23:29.880Z,24.37
2023-03-26T17:27:29.936Z,24.36
2023-03-26T17:31:29.989Z,24.36
2023-03-26T17:35:29.880Z,24.36
2023-03-26T17:39:29.871Z,24.36
2023-03-26T17:43:29.816Z,24.35
2023-03-26T17:47:29.808Z,24.35
2023-03-26T17:51:29.768Z,24.34
2023-03-26T17:55:29.746Z,24.34
2023-03-26T17:59:29.689Z,24.34
2023-03-26T18:03:31.005Z,24.33
2023-03-26T18:07:29.758Z,24.33
2023-03-26T18:11:29.710Z,24.32
2023-03-26T18:15:29.672Z,24.32
2023-03-26T18:19:29.639Z,24.32
2023-03-26T18:23:29.609Z,24.30
2023-03-26T18:27:29.553Z,24.30
2023-03-26T18:31:29.568Z,24.29
2023-03-26T18:35:29.576Z,24.29
2023-03-26T18:39:29.465Z,24.30
2023-03-26T18:43:34.885Z,24.29
2023-03-26T18:47:30.503Z,24.29
2023-03-26T18:51:31.689Z,24.28
2023-03-26T18:55:29.331Z,24.28
2023-03-26T18:59:29.292Z,24.28
2023-03-26T19:03:29.334Z,24.28
2023-03-26T19:07:29.242Z,24.27
2023-03-26T19:11:29.202Z,24.27
2023-03-26T19:15:29.152Z,24.27
2023-03-26T19:19:29.134Z,24.27
2023-03-26T19:23:29.106Z,24.28
2023-03-26T19:27:29.064Z,24.27
2023-03-26T19:31:29.084Z,24.27
2023-03-26T19:35:29.006Z,24.27
2023-03-26T19:39:37.061Z,24.26
2023-03-26T19:43:29.971Z,24.26
2023-03-26T19:47:43.176Z,24.26
2023-03-26T19:51:29.870Z,24.26
2023-03-26T19:55:28.835Z,24.25
2023-03-26T19:59:28.805Z,24.24
2023-03-26T20:03:29.028Z,24.25
2023-03-26T20:07:35.284Z,24.25
2023-03-26T20:11:29.709Z,24.24
2023-03-26T20:15:28.693Z,24.24
2023-03-26T20:19:28.869Z,24.23
2023-03-26T20:23:28.972Z,24.24
2023-03-26T20:27:28.780Z,24.23
2023-03-26T20:31:28.739Z,24.23
2023-03-26T20:35:35.981Z,24.22
2023-03-26T20:39:29.685Z,24.22
2023-03-26T20:43:28.639Z,24.22
2023-03-26T20:47:28.749Z,24.21
2023-03-26T20:51:29.236Z,24.21
2023-03-26T20:55:29.120Z,24.21
2023-03-26T20:59:29.144Z,24.21
2023-03-26T21:03:29.101Z,24.21
2023-03-26T21:07:29.019Z,24.20
2023-03-26T21:11:28.994Z,24.19
2023-03-26T21:15:28.964Z,24.20
2023-03-26T21:19:28.926Z,24.20
2023-03-26T21:23:28.884Z,24.19
2023-03-26T21:27:28.860Z,24.19
2023-03-26T21:31:28.839Z,24.19
2023-03-26T21:35:28.837Z,24.19
2023-03-26T21:39:28.759Z,24.18
2023-03-26T21:43:28.715Z,24.17
2023-03-26T21:47:28.832Z,24.17
2023-03-26T21:51:28.939Z,24.17
2023-03-26T21:55:29.072Z,24.17
2023-03-26T21:59:29.179Z,24.16
2023-03-26T22:03:29.297Z,24.17
2023-03-26T22:07:29.341Z,24.16
2023-03-26T22:11:29.456Z,24.15
2023-03-26T22:15:29.563Z,24.14
2023-03-26T22:19:30.461Z,24.15
2023-03-26T22:23:29.898Z,24.14
2023-03-26T22:27:30.065Z,24.14
2023-03-26T22:31:30.264Z,24.14
2023-03-26T22:35:30.441Z,24.14
2023-03-26T22:39:30.509Z,24.14
2023-03-26T22:43:30.629Z,24.13
2023-03-26T22:47:30.815Z,24.13
2023-03-26T22:51:30.901Z,24.13
2023-03-26T22:55:31.097Z,24.13
2023-03-26T22:59:31.201Z,24.11
2023-03-26T23:03:35.056Z,24.12
2023-03-26T23:07:31.221Z,24.11
2023-03-26T23:11:31.219Z,24.11
2023-03-26T23:15:31.163Z,24.10
2023-03-26T23:19:31.113Z,24.11
2023-03-26T23:23:31.080Z,24.11
2023-03-26T23:27:31.062Z,24.10
2023-03-26T23:31:31.189Z,24.10
2023-03-26T23:35:31.285Z,24.10
2023-03-26T23:39:31.394Z,24.10
2023-03-26T23:43:31.434Z,24.09
2023-03-26T23:47:31.601Z,24.09
2023-03-26T23:51:31.670Z,24.09
2023-03-26T23:55:31.743Z,24.09
2023-03-26T23:59:31.785Z,24.08
